Time;durP1;ratioP1;P1;durP2;ratioP2;P2;SDS_P1;SDS_P2;PMS_P1;PMS_P2;Temp;Humidity;BMP_temperature;BMP_pressure;BME280_temperature;BME280_humidity;BME280_pressure;Samples;Min_cycle;Max_cycle;Signal;HPM_P1;HPM_P2
2023/08/30 00:00:41;;;;;;;17.40;11.20;;;13.30;75.80;;;;;;5110212;27;46571;-68
2023/08/30 00:03:08;;;;;;;19.63;12.40;;;13.30;75.70;;;;;;5107985;27;46428;-68
2023/08/30 00:05:33;;;;;;;19.30;10.17;;;13.30;76.80;;;;;;5110754;27;46530;-68
2023/08/30 00:07:59;;;;;;;14.20;10.67;;;13.30;74.80;;;;;;5106414;27;47802;-67
2023/08/30 00:10:25;;;;;;;15.10;11.13;;;13.30;75.90;;;;;;5106834;27;46966;-67
2023/08/30 00:12:50;;;;;;;14.77;10.63;;;13.30;75.80;;;;;;5125526;27;46448;-67
2023/08/30 00:15:16;;;;;;;14.10;10.13;;;13.30;75.80;;;;;;5115249;27;46662;-67
2023/08/30 00:17:42;;;;;;;17.27;11.07;;;13.30;74.90;;;;;;5108560;27;47873;-67
2023/08/30 00:20:11;;;;;;;15.17;10.43;;;13.30;75.80;;;;;;5106558;27;46488;-69
2023/08/30 00:22:39;;;;;;;14.47;10.17;;;13.30;75.70;;;;;;5122921;27;46449;-68
2023/08/30 00:25:05;;;;;;;15.57;10.80;;;13.30;75.70;;;;;;5125238;27;46474;-68
2023/08/30 00:27:31;;;;;;;17.67;11.30;;;13.30;74.70;;;;;;5115399;27;48100;-68
2023/08/30 00:29:56;;;;;;;15.27;10.67;;;13.30;75.70;;;;;;5125466;27;46774;-68
2023/08/30 00:32:22;;;;;;;16.77;11.50;;;13.30;75.60;;;;;;5110354;27;46751;-68
2023/08/30 00:34:51;;;;;;;16.63;10.20;;;13.30;75.80;;;;;;5110176;27;46451;-68
2023/08/30 00:37:17;;;;;;;14.10;10.73;;;13.30;75.80;;;;;;5125939;27;46190;-68
2023/08/30 00:39:43;;;;;;;16.50;10.80;;;13.30;74.70;;;;;;5105768;27;46807;-68
2023/08/30 00:42:09;;;;;;;15.87;10.83;;;13.30;75.70;;;;;;5117303;27;46467;-68
2023/08/30 00:44:35;;;;;;;17.10;11.20;;;13.40;75.50;;;;;;5111055;27;46488;-69
2023/08/30 00:47:02;;;;;;;15.20;11.13;;;13.40;75.40;;;;;;5109374;27;48160;-68
2023/08/30 00:49:30;;;;;;;16.60;11.40;;;13.40;74.30;;;;;;5106151;27;46440;-66
2023/08/30 00:51:58;;;;;;;17.43;11.77;;;13.40;75.30;;;;;;5126034;27;46489;-67
2023/08/30 00:54:24;;;;;;;15.43;10.47;;;13.40;75.20;;;;;;5125077;27;46695;-67
2023/08/30 00:56:50;;;;;;;16.97;11.70;;;13.40;75.30;;;;;;5111370;27;48073;-67
2023/08/30 00:59:16;;;;;;;15.17;10.83;;;13.40;74.20;;;;;;5109469;27;45872;-68
2023/08/30 01:01:42;;;;;;;18.00;11.60;;;13.40;75.20;;;;;;5123996;27;46450;-68
2023/08/30 01:04:08;;;;;;;16.90;11.80;;;13.40;75.20;;;;;;5113375;27;46790;-68
2023/08/30 01:06:36;;;;;;;18.50;10.80;;;13.40;75.30;;;;;;5115299;27;48075;-68
2023/08/30 01:09:03;;;;;;;14.80;11.00;;;13.40;74.30;;;;;;5106924;27;46491;-68
2023/08/30 01:11:35;;;;;;;16.90;11.27;;;13.40;75.50;;;;;;5126597;27;46453;-66
2023/08/30 01:14:18;;;;;;;15.83;11.87;;;13.40;75.40;;;;;;5109482;27;46354;-68
2023/08/30 01:16:44;;;;;;;18.17;12.20;;;13.40;75.40;;;;;;5109201;27;46671;-66
2023/08/30 01:19:53;;;;;;;18.50;13.20;;;13.40;74.50;;;;;;5110119;27;46517;-69
2023/08/30 01:22:45;;;;;;;18.10;11.33;;;13.40;75.50;;;;;;5125445;27;46584;-68
2023/08/30 01:25:37;;;;;;;17.30;11.70;;;13.40;75.40;;;;;;5114214;27;46540;-68
2023/08/30 01:28:05;;;;;;;17.60;11.87;;;13.30;74.40;;;;;;5126409;27;46240;-67
2023/08/30 01:30:34;;;;;;;27.70;12.03;;;13.30;75.40;;;;;;5110579;27;46681;-67
2023/08/30 01:33:04;;;;;;;15.80;11.93;;;13.30;75.50;;;;;;5109743;27;46516;-68
2023/08/30 01:35:32;;;;;;;17.47;11.90;;;13.40;75.40;;;;;;5117389;27;46645;-68
2023/08/30 01:38:04;;;;;;;17.10;12.07;;;13.30;74.40;;;;;;5113120;27;46361;-68
2023/08/30 01:40:35;;;;;;;16.40;11.63;;;13.30;75.40;;;;;;5108128;27;46471;-68
2023/08/30 01:43:04;;;;;;;17.10;11.37;;;13.30;75.50;;;;;;5107253;27;46429;-68
2023/08/30 01:45:30;;;;;;;17.30;11.70;;;13.30;75.60;;;;;;5109041;27;46282;-68
2023/08/30 01:47:57;;;;;;;16.07;10.80;;;13.30;74.60;;;;;;5118128;27;46434;-68
2023/08/30 01:50:24;;;;;;;16.53;11.87;;;13.30;75.70;;;;;;5109574;27;46514;-67
2023/08/30 01:52:50;;;;;;;18.20;12.20;;;13.30;75.50;;;;;;5110832;27;46814;-67
2023/08/30 01:55:20;;;;;;;18.27;11.83;;;13.30;75.30;;;;;;5110859;27;46681;-67
2023/08/30 01:57:46;;;;;;;18.13;12.53;;;13.40;74.40;;;;;;5119641;27;48177;-67
2023/08/30 02:00:12;;;;;;;17.97;12.53;;;13.40;75.30;;;;;;5128895;27;46647;-68
2023/08/30 02:02:38;;;;;;;18.30;12.10;;;13.40;75.20;;;;;;5112583;27;46504;-67
2023/08/30 02:05:04;;;;;;;16.27;11.60;;;13.40;75.20;;;;;;5112755;27;46499;-67
2023/08/30 02:07:55;;;;;;;22.83;12.67;;;13.30;74.50;;;;;;5113323;27;48087;-67
2023/08/30 02:10:28;;;;;;;20.40;13.30;;;13.30;75.30;;;;;;5111327;27;46431;-67
2023/08/30 02:12:55;;;;;;;15.80;10.67;;;13.30;75.40;;;;;;5125374;27;46464;-67
2023/08/30 02:15:24;;;;;;;18.17;12.50;;;13.30;75.50;;;;;;5110411;27;46409;-67
2023/08/30 02:17:50;;;;;;;20.30;12.10;;;13.30;74.50;;;;;;5113861;27;47815;-67
2023/08/30 02:20:16;;;;;;;21.07;11.53;;;13.30;75.50;;;;;;5117667;27;46442;-67
2023/08/30 02:22:42;;;;;;;14.87;11.20;;;13.30;75.50;;;;;;5110548;27;46835;-68
2023/08/30 02:25:09;;;;;;;16.13;11.90;;;13.30;75.40;;;;;;5112430;27;46835;-68
2023/08/30 02:27:35;;;;;;;19.93;12.90;;;13.20;74.50;;;;;;5117123;27;48057;-68
2023/08/30 02:30:00;;;;;;;17.30;11.10;;;13.20;75.50;;;;;;5111658;27;46720;-68
2023/08/30 02:32:26;;;;;;;15.40;10.70;;;13.20;75.60;;;;;;5111706;27;45858;-68
2023/08/30 02:34:52;;;;;;;15.80;11.40;;;13.20;75.70;;;;;;5111178;27;45877;-67
2023/08/30 02:37:19;;;;;;;15.47;11.17;;;13.20;75.70;;;;;;5113821;27;46657;-67
2023/08/30 02:39:45;;;;;;;17.37;12.03;;;13.20;74.60;;;;;;5110150;27;46408;-67
2023/08/30 02:42:10;;;;;;;14.43;10.67;;;13.20;75.60;;;;;;5113455;27;46487;-68
2023/08/30 02:44:36;;;;;;;14.77;10.90;;;13.20;75.50;;;;;;5111506;27;46454;-67
2023/08/30 02:47:02;;;;;;;18.60;10.50;;;13.20;75.60;;;;;;5112244;27;49110;-68
2023/08/30 02:49:27;;;;;;;15.73;11.00;;;13.20;74.70;;;;;;5115010;27;46522;-68
2023/08/30 02:51:53;;;;;;;17.37;11.10;;;13.20;75.80;;;;;;5113015;27;46489;-68
2023/08/30 02:54:19;;;;;;;15.97;11.63;;;13.10;75.80;;;;;;5118041;27;47028;-68
2023/08/30 02:56:45;;;;;;;16.53;11.10;;;13.20;75.80;;;;;;5109888;27;48860;-68
2023/08/30 02:59:11;;;;;;;16.30;12.23;;;13.10;74.60;;;;;;5112540;27;45844;-69
2023/08/30 03:01:38;;;;;;;13.67;10.03;;;13.20;75.70;;;;;;5111860;27;46442;-69
2023/08/30 03:04:07;;;;;;;15.40;10.57;;;13.10;75.60;;;;;;5110828;27;46527;-69
2023/08/30 03:06:34;;;;;;;15.80;9.90;;;13.10;75.70;;;;;;5109921;27;48724;-68
2023/08/30 03:08:59;;;;;;;16.10;11.00;;;13.10;75.70;;;;;;5108901;27;46458;-69
2023/08/30 03:11:25;;;;;;;17.07;10.60;;;13.10;75.50;;;;;;5107363;27;46485;-67
2023/08/30 03:13:53;;;;;;;14.40;10.30;;;13.10;75.50;;;;;;5111118;27;45939;-69
2023/08/30 03:16:19;;;;;;;19.60;11.00;;;13.20;75.50;;;;;;5109511;27;47995;-67
2023/08/30 03:18:45;;;;;;;18.40;9.97;;;13.20;75.40;;;;;;5131045;27;46730;-68
2023/08/30 03:21:11;;;;;;;14.43;10.27;;;13.20;75.40;;;;;;5112829;27;46874;-68
2023/08/30 03:23:38;;;;;;;14.70;10.67;;;13.20;75.30;;;;;;5119570;27;46703;-67
2023/08/30 03:26:09;;;;;;;13.43;9.50;;;13.20;76.40;;;;;;5111161;27;48644;-67
2023/08/30 03:28:36;;;;;;;15.43;10.10;;;13.20;74.10;;;;;;5108881;27;46444;-67
2023/08/30 03:31:01;;;;;;;13.37;9.40;;;13.20;75.20;;;;;;5112481;27;46424;-68
2023/08/30 03:33:27;;;;;;;14.77;9.70;;;13.20;75.20;;;;;;5110683;27;46481;-67
2023/08/30 03:35:53;;;;;;;14.83;10.47;;;13.20;75.30;;;;;;5112237;27;46515;-67
2023/08/30 03:38:18;;;;;;;15.37;10.03;;;13.20;74.20;;;;;;5109913;27;45801;-67
2023/08/30 03:40:44;;;;;;;14.63;10.23;;;13.20;75.20;;;;;;5109781;27;46495;-67
2023/08/30 03:43:10;;;;;;;14.70;9.93;;;13.20;75.20;;;;;;5111443;27;46581;-68
2023/08/30 03:45:36;;;;;;;13.17;9.60;;;13.20;75.10;;;;;;5115597;27;48106;-68
2023/08/30 03:48:03;;;;;;;15.47;10.60;;;13.20;75.00;;;;;;5114166;27;46554;-68
2023/08/30 03:50:29;;;;;;;14.40;9.60;;;13.20;75.10;;;;;;5109357;27;46562;-69
2023/08/30 03:52:57;;;;;;;15.30;10.03;;;13.20;74.90;;;;;;5111223;27;46350;-69
2023/08/30 03:55:23;;;;;;;15.83;9.47;;;13.20;75.00;;;;;;5108029;27;48179;-69
2023/08/30 03:57:49;;;;;;;13.50;9.83;;;13.20;74.20;;;;;;5110769;27;46706;-69
2023/08/30 04:00:15;;;;;;;14.60;9.73;;;13.20;75.00;;;;;;5113189;27;46735;-69
2023/08/30 04:02:41;;;;;;;15.60;10.33;;;13.20;75.10;;;;;;5111790;27;46408;-68
2023/08/30 04:05:08;;;;;;;14.27;10.60;;;13.10;75.10;;;;;;5113419;27;48056;-68
2023/08/30 04:07:35;;;;;;;18.00;10.90;;;13.10;74.10;;;;;;5110113;27;46476;-68
2023/08/30 04:10:05;;;;;;;13.77;10.40;;;13.10;75.10;;;;;;5110288;27;46353;-68
2023/08/30 04:12:31;;;;;;;15.37;11.70;;;13.10;75.10;;;;;;5109250;27;46359;-68
2023/08/30 04:14:57;;;;;;;18.13;10.10;;;13.10;75.10;;;;;;5126140;27;47826;-68
2023/08/30 04:17:23;;;;;;;13.50;9.10;;;13.10;75.10;;;;;;5109458;27;46637;-67
2023/08/30 04:19:52;;;;;;;16.13;10.93;;;13.10;73.90;;;;;;5111151;27;46581;-68
2023/08/30 04:22:18;;;;;;;17.83;11.10;;;13.10;75.00;;;;;;5110509;27;46685;-68
2023/08/30 04:24:45;;;;;;;15.17;10.63;;;13.10;75.20;;;;;;5110657;27;48730;-68
2023/08/30 04:27:11;;;;;;;16.13;10.70;;;13.10;75.20;;;;;;5116393;27;46431;-68
2023/08/30 04:29:36;;;;;;;15.83;11.03;;;13.00;74.00;;;;;;5108701;27;46454;-69
2023/08/30 04:32:02;;;;;;;15.43;10.77;;;13.10;75.30;;;;;;5110430;27;46079;-68
2023/08/30 04:34:29;;;;;;;16.80;11.63;;;13.10;75.10;;;;;;5108379;27;49172;-67
2023/08/30 04:36:55;;;;;;;17.70;12.40;;;13.10;75.00;;;;;;5111321;27;46448;-68
2023/08/30 04:39:20;;;;;;;17.30;11.60;;;13.10;73.80;;;;;;5129117;27;46423;-68
2023/08/30 04:41:46;;;;;;;19.23;12.17;;;13.10;74.80;;;;;;5108869;27;46501;-68
2023/08/30 04:44:12;;;;;;;18.57;12.73;;;13.10;74.70;;;;;;5115862;27;46813;-67
2023/08/30 04:46:37;;;;;;;16.93;12.23;;;13.20;74.90;;;;;;5108399;27;46457;-67
2023/08/30 04:49:03;;;;;;;18.40;12.87;;;13.10;73.70;;;;;;5112196;27;46370;-67
2023/08/30 04:51:29;;;;;;;21.60;13.13;;;13.10;74.80;;;;;;5110953;27;46526;-67
2023/08/30 04:53:54;;;;;;;19.50;12.50;;;13.10;74.80;;;;;;5112022;27;47895;-67
2023/08/30 04:56:20;;;;;;;19.43;12.40;;;13.10;75.00;;;;;;5109508;27;46418;-67
2023/08/30 04:58:46;;;;;;;20.03;13.40;;;13.10;75.00;;;;;;5111239;27;45904;-67
2023/08/30 05:01:13;;;;;;;20.20;13.33;;;13.20;75.10;;;;;;5126472;27;46609;-67
2023/08/30 05:03:40;;;;;;;18.07;12.73;;;13.20;74.90;;;;;;5109342;27;48746;-67
2023/08/30 05:06:05;;;;;;;19.37;13.93;;;13.20;74.70;;;;;;5111771;27;46504;-67
2023/08/30 05:08:31;;;;;;;17.27;11.70;;;13.30;74.70;;;;;;5107348;27;46437;-68
2023/08/30 05:10:57;;;;;;;17.30;12.73;;;13.30;74.80;;;;;;5109736;27;46552;-69
2023/08/30 05:13:23;;;;;;;18.20;11.97;;;13.30;74.70;;;;;;5108579;27;47712;-69
2023/08/30 05:15:49;;;;;;;19.23;13.10;;;13.30;74.70;;;;;;5107103;27;46494;-69
2023/08/30 05:18:15;;;;;;;20.60;13.40;;;13.30;74.70;;;;;;5108260;27;46574;-69
2023/08/30 05:20:40;;;;;;;18.70;12.90;;;13.40;74.80;;;;;;5107986;27;46917;-69
2023/08/30 05:23:06;;;;;;;18.23;13.20;;;13.40;74.70;;;;;;5116148;27;47920;-69
2023/08/30 05:25:31;;;;;;;18.30;12.70;;;13.40;74.60;;;;;;5116570;27;46536;-68
2023/08/30 05:27:57;;;;;;;20.13;13.07;;;13.50;73.40;;;;;;5114074;27;45881;-69
2023/08/30 05:30:23;;;;;;;18.60;11.97;;;13.50;74.90;;;;;;5117974;27;46670;-68
2023/08/30 05:32:48;;;;;;;19.33;12.37;;;13.50;74.30;;;;;;5118648;27;47535;-69
2023/08/30 05:35:15;;;;;;;15.70;11.20;;;13.60;74.30;;;;;;5116292;27;45932;-69
2023/08/30 05:37:40;;;;;;;16.87;12.13;;;13.70;73.10;;;;;;5115853;27;46704;-69
2023/08/30 05:40:07;;;;;;;36.17;14.73;;;13.70;74.00;;;;;;5117819;27;46491;-69
2023/08/30 05:42:33;;;;;;;20.40;14.90;;;13.70;74.00;;;;;;5114501;27;48073;-69
2023/08/30 05:44:59;;;;;;;22.00;13.80;;;13.70;74.20;;;;;;5116505;27;46488;-69
2023/08/30 05:47:24;;;;;;;18.77;13.60;;;13.70;74.20;;;;;;5121532;27;46493;-69
2023/08/30 05:49:50;;;;;;;19.77;13.90;;;13.70;73.30;;;;;;5115194;27;46781;-69
2023/08/30 05:52:18;;;;;;;20.17;14.63;;;13.70;74.50;;;;;;5119277;27;47934;-69
2023/08/30 05:54:44;;;;;;;21.70;15.70;;;13.70;74.40;;;;;;5116603;27;46451;-68
2023/08/30 05:57:13;;;;;;;20.00;12.97;;;13.80;74.30;;;;;;5115887;27;46854;-68
2023/08/30 05:59:38;;;;;;;17.97;12.17;;;13.80;73.10;;;;;;5106317;27;46187;-68
2023/08/30 06:02:04;;;;;;;19.20;13.33;;;13.90;74.10;;;;;;5114892;27;47944;-67
2023/08/30 06:04:30;;;;;;;21.70;13.87;;;14.00;74.00;;;;;;5115209;27;46892;-68
2023/08/30 06:06:55;;;;;;;16.70;13.33;;;14.00;73.70;;;;;;5113968;27;46332;-68
2023/08/30 06:09:21;;;;;;;16.30;12.47;;;14.20;72.50;;;;;;5110739;27;46530;-69
2023/08/30 06:11:47;;;;;;;19.30;14.37;;;14.30;73.60;;;;;;5118782;27;46474;-68
2023/08/30 06:14:12;;;;;;;15.60;12.60;;;14.30;73.20;;;;;;5115214;27;46544;-67
2023/08/30 06:16:38;;;;;;;19.10;13.20;;;14.40;71.90;;;;;;5117092;22;46637;-81
2023/08/30 06:19:04;;;;;;;17.43;13.53;;;14.50;73.00;;;;;;5129336;27;46384;-81
2023/08/30 06:21:29;;;;;;;18.10;12.67;;;14.60;72.90;;;;;;5139594;27;47409;-80
2023/08/30 06:23:55;;;;;;;21.20;11.50;;;14.80;72.80;;;;;;5131759;27;46499;-81
2023/08/30 06:26:20;;;;;;;13.90;11.00;;;14.70;73.00;;;;;;5132458;27;45851;-83
2023/08/30 06:28:46;;;;;;;16.33;10.97;;;14.70;73.00;;;;;;5129301;27;46639;-81
2023/08/30 06:31:12;;;;;;;22.13;11.47;;;14.70;73.20;;;;;;5133550;27;46469;-81
2023/08/30 06:33:38;;;;;;;14.97;10.57;;;14.80;72.10;;;;;;5112759;27;46514;-82
2023/08/30 06:36:04;;;;;;;16.97;10.00;;;14.70;73.20;;;;;;5128320;27;46468;-84
2023/08/30 06:38:30;;;;;;;13.30;9.70;;;14.60;72.60;;;;;;5128022;27;46756;-84
2023/08/30 06:40:58;;;;;;;16.37;11.73;;;14.60;73.60;;;;;;5090025;27;48171;-82
2023/08/30 06:43:24;;;;;;;14.27;10.30;;;14.70;73.90;;;;;;5119508;27;46533;-79
2023/08/30 06:45:49;;;;;;;14.77;10.77;;;14.70;74.00;;;;;;5115734;27;46572;-82
2023/08/30 06:48:15;;;;;;;14.13;10.63;;;14.80;72.60;;;;;;5131454;27;46719;-82
2023/08/30 06:50:40;;;;;;;15.80;11.00;;;14.80;73.70;;;;;;5126891;27;46890;-82
2023/08/30 06:53:06;;;;;;;13.07;10.33;;;14.90;73.20;;;;;;5111009;27;46410;-81
2023/08/30 06:55:33;;;;;;;15.50;10.40;;;15.00;73.00;;;;;;5125419;27;46374;-80
2023/08/30 06:57:59;;;;;;;15.60;10.40;;;15.20;72.80;;;;;;5114480;27;46689;-83
2023/08/30 07:00:24;;;;;;;15.13;10.13;;;15.30;71.20;;;;;;5109200;27;48182;-78
2023/08/30 07:02:50;;;;;;;14.90;10.50;;;15.50;72.20;;;;;;5111867;27;46617;-82
2023/08/30 07:05:16;;;;;;;14.40;10.70;;;15.50;71.80;;;;;;5109424;27;46275;-82
2023/08/30 07:07:41;;;;;;;13.30;9.80;;;15.50;71.70;;;;;;5127099;27;46488;-79
2023/08/30 07:10:08;;;;;;;12.63;9.87;;;15.70;70.40;;;;;;5126785;27;46557;-83
2023/08/30 07:12:33;;;;;;;12.90;9.73;;;15.90;71.10;;;;;;5124975;27;45816;-79
2023/08/30 07:14:59;;;;;;;13.63;10.00;;;16.10;70.60;;;;;;5128712;27;46745;-84
2023/08/30 07:17:24;;;;;;;14.77;8.80;;;16.10;70.10;;;;;;5111795;27;46500;-81
2023/08/30 07:19:50;;;;;;;15.83;10.60;;;16.40;69.30;;;;;;5124502;27;46493;-84
2023/08/30 07:22:16;;;;;;;13.30;10.10;;;16.50;70.20;;;;;;5127743;27;46441;-83
2023/08/30 07:24:43;;;;;;;11.63;8.73;;;17.60;70.70;;;;;;5125243;27;46209;-85
2023/08/30 07:27:09;;;;;;;11.50;9.10;;;16.80;69.20;;;;;;5117022;27;47004;-84
2023/08/30 07:29:34;;;;;;;12.83;9.33;;;16.90;69.60;;;;;;5109851;27;48169;-83
2023/08/30 07:32:00;;;;;;;9.80;8.20;;;16.90;69.40;;;;;;5126856;27;46731;-82
2023/08/30 07:34:26;;;;;;;12.33;8.40;;;17.00;68.90;;;;;;5108567;27;46548;-82
2023/08/30 07:36:55;;;;;;;11.57;8.57;;;17.60;69.10;;;;;;5109879;27;46497;-81
2023/08/30 07:39:21;;;;;;;12.13;7.90;;;17.90;68.60;;;;;;5128983;27;46874;-83
2023/08/30 07:41:46;;;;;;;20.50;12.00;;;17.50;67.80;;;;;;5126391;27;46484;-84
2023/08/30 07:44:12;;;;;;;9.20;7.57;;;17.50;67.60;;;;;;5127380;27;46513;-81
2023/08/30 07:46:37;;;;;;;10.07;7.50;;;17.90;67.50;;;;;;5125936;27;46762;-80
2023/08/30 07:49:03;;;;;;;14.07;8.63;;;17.70;67.30;;;;;;5129796;27;47303;-83
2023/08/30 07:51:28;;;;;;;13.67;8.00;;;17.90;66.70;;;;;;5112214;27;47221;-79
2023/08/30 07:53:54;;;;;;;13.73;7.23;;;18.10;66.50;;;;;;5127075;27;46549;-82
2023/08/30 07:56:19;;;;;;;9.70;7.67;;;18.00;66.00;;;;;;5131607;27;46768;-80
2023/08/30 07:58:45;;;;;;;10.97;7.30;;;17.90;66.40;;;;;;5129497;27;46558;-83
2023/08/30 08:01:11;;;;;;;8.27;6.70;;;17.90;66.00;;;;;;5130828;27;46586;-82
2023/08/30 08:03:36;;;;;;;9.70;7.37;;;17.80;66.00;;;;;;5125348;27;46785;-81
2023/08/30 08:06:03;;;;;;;12.20;9.23;;;17.80;66.10;;;;;;5130577;27;46555;-81
2023/08/30 08:08:28;;;;;;;11.83;8.10;;;17.80;64.80;;;;;;5107252;27;48052;-81
2023/08/30 08:10:54;;;;;;;8.63;6.77;;;17.80;65.70;;;;;;5123425;27;46486;-80
2023/08/30 08:13:20;;;;;;;10.73;7.70;;;17.90;65.40;;;;;;5127522;27;46880;-80
2023/08/30 08:15:45;;;;;;;9.17;6.40;;;18.00;65.20;;;;;;5115985;27;46422;-81
2023/08/30 08:18:11;;;;;;;8.90;6.53;;;18.00;65.00;;;;;;5129095;27;46390;-82
2023/08/30 08:20:37;;;;;;;11.07;7.97;;;17.90;64.00;;;;;;5109059;27;46451;-79
2023/08/30 08:23:03;;;;;;;9.23;6.90;;;17.90;65.50;;;;;;5128444;27;46475;-82
2023/08/30 08:25:29;;;;;;;9.17;7.50;;;17.70;66.80;;;;;;5129173;27;46453;-80
2023/08/30 08:27:54;;;;;;;9.13;6.87;;;17.70;65.50;;;;;;5108375;27;48511;-78
2023/08/30 08:30:20;;;;;;;8.73;6.53;;;17.70;64.30;;;;;;5124802;27;46543;-80
2023/08/30 08:32:49;;;;;;;19.47;7.10;;;17.70;65.30;;;;;;5125709;27;46563;-80
2023/08/30 08:35:15;;;;;;;10.13;6.87;;;17.70;65.00;;;;;;5124921;27;46479;-80
2023/08/30 08:37:41;;;;;;;7.93;6.50;;;17.80;64.70;;;;;;5109038;27;48920;-80
2023/08/30 08:40:10;;;;;;;11.37;7.17;;;18.00;63.00;;;;;;5125328;27;46746;-80
2023/08/30 08:42:36;;;;;;;10.20;7.07;;;18.30;63.90;;;;;;5124837;27;46481;-82
2023/08/30 08:45:03;;;;;;;9.90;7.20;;;18.60;63.60;;;;;;5111487;27;46552;-84
2023/08/30 08:47:30;;;;;;;10.80;7.10;;;18.50;63.00;;;;;;5123900;27;48649;-83
2023/08/30 08:49:56;;;;;;;9.10;6.63;;;18.50;63.20;;;;;;5113387;27;46421;-83
2023/08/30 08:52:24;;;;;;;9.83;6.80;;;18.70;63.30;;;;;;5128122;27;46581;-82
2023/08/30 08:54:50;;;;;;;9.40;6.50;;;19.10;62.30;;;;;;5130135;27;46406;-83
2023/08/30 08:57:17;;;;;;;8.50;6.60;;;19.50;61.30;;;;;;5126824;27;46693;-77
2023/08/30 08:59:43;;;;;;;7.90;5.80;;;19.70;60.50;;;;;;5131643;27;47776;-81
2023/08/30 09:02:11;;;;;;;17.70;6.73;;;19.90;60.70;;;;;;5129018;27;47164;-81
2023/08/30 09:04:38;;;;;;;7.73;6.33;;;19.90;59.70;;;;;;5128529;27;46466;-78
2023/08/30 09:07:04;;;;;;;7.60;5.40;;;20.20;59.00;;;;;;5126834;27;47636;-79
2023/08/30 09:09:30;;;;;;;7.20;4.93;;;20.40;58.30;;;;;;5125198;27;46756;-81
2023/08/30 09:11:56;;;;;;;6.33;4.80;;;20.60;57.50;;;;;;5125841;27;46522;-80
2023/08/30 09:14:21;;;;;;;7.20;5.90;;;20.70;57.00;;;;;;5109846;27;46688;-82
2023/08/30 09:17:01;;;;;;;6.73;4.70;;;20.80;56.70;;;;;;5124495;27;47945;-81
2023/08/30 09:19:27;;;;;;;6.23;4.80;;;20.80;55.00;;;;;;5128460;27;46493;-81
2023/08/30 09:21:57;;;;;;;7.10;5.77;;;20.70;56.00;;;;;;5128184;27;46732;-79
2023/08/30 09:24:24;;;;;;;7.20;4.80;;;20.60;55.80;;;;;;5127240;27;46416;-78
2023/08/30 09:26:52;;;;;;;5.60;4.30;;;20.70;55.50;;;;;;5124576;27;46633;-79
2023/08/30 09:29:19;;;;;;;4.70;3.77;;;20.80;55.60;;;;;;5124616;27;46492;-78
2023/08/30 09:31:45;;;;;;;5.53;4.20;;;20.90;55.00;;;;;;5109176;27;46495;-78
2023/08/30 09:34:11;;;;;;;6.87;4.90;;;20.50;54.30;;;;;;5126162;27;46744;-79
2023/08/30 09:36:41;;;;;;;5.73;4.00;;;21.00;54.20;;;;;;5111844;27;48315;-78
2023/08/30 09:39:14;;;;;;;9.33;3.80;;;21.40;51.80;;;;;;5130261;27;46700;-80
2023/08/30 09:41:47;;;;;;;6.80;4.43;;;21.40;52.30;;;;;;5125339;27;46695;-79
2023/08/30 09:44:14;;;;;;;6.00;4.23;;;21.40;51.60;;;;;;5115445;27;45956;-79
2023/08/30 09:50:01;;;;;;;6.20;3.60;;;21.60;50.90;;;;;;5096194;27;46733;-79
2023/08/30 09:52:30;;;;;;;5.87;3.70;;;21.60;52.20;;;;;;5121153;27;46710;-80
2023/08/30 09:54:57;;;;;;;6.07;3.53;;;21.30;52.00;;;;;;5123804;27;46623;-79
2023/08/30 09:57:23;;;;;;;4.13;2.57;;;21.40;52.40;;;;;;5124259;27;46572;-79
2023/08/30 09:59:49;;;;;;;3.80;2.33;;;21.40;51.50;;;;;;5105131;27;46588;-80
2023/08/30 10:02:15;;;;;;;6.53;2.80;;;21.10;51.50;;;;;;5106115;27;46562;-79
2023/08/30 10:04:42;;;;;;;7.20;2.97;;;20.90;51.50;;;;;;5107571;27;46511;-80
2023/08/30 10:07:09;;;;;;;4.67;2.97;;;20.90;50.80;;;;;;5125655;27;47242;-80
2023/08/30 10:09:38;;;;;;;6.00;2.40;;;21.00;50.80;;;;;;5126857;27;46461;-80
2023/08/30 10:12:05;;;;;;;5.50;3.20;;;21.20;50.40;;;;;;5126469;27;46470;-80
2023/08/30 10:14:31;;;;;;;4.13;2.63;;;21.40;49.50;;;;;;5117940;27;46506;-79
2023/08/30 10:17:07;;;;;;;6.50;3.50;;;21.60;49.10;;;;;;5125365;27;46401;-78
2023/08/30 10:19:33;;;;;;;4.87;3.00;;;21.90;49.40;;;;;;5128932;27;46732;-79
2023/08/30 10:22:05;;;;;;;4.37;2.80;;;22.20;47.60;;;;;;5125795;27;46527;-82
2023/08/30 10:24:37;;;;;;;5.40;2.90;;;22.50;46.60;;;;;;5127459;27;46532;-79
2023/08/30 10:27:05;;;;;;;4.20;2.50;;;22.60;45.00;;;;;;5125650;27;48628;-80
2023/08/30 10:29:33;;;;;;;4.90;3.27;;;22.60;44.20;;;;;;5126872;27;46728;-78
2023/08/30 10:32:06;;;;;;;5.03;2.90;;;23.00;43.40;;;;;;5128083;27;46752;-79
2023/08/30 10:34:36;;;;;;;6.00;2.30;;;23.20;30.80;;;;;;5125810;27;46430;-79
2023/08/30 10:37:05;;;;;;;4.90;2.83;;;23.20;30.20;;;;;;5127634;27;46644;-79
2023/08/30 10:39:36;;;;;;;3.70;2.30;;;23.20;30.00;;;;;;5129049;27;46485;-78
2023/08/30 10:42:13;;;;;;;4.77;2.93;;;22.70;30.00;;;;;;5109766;27;46729;-77
2023/08/30 10:44:48;;;;;;;3.90;2.13;;;22.10;31.80;;;;;;5130278;27;46690;-79
2023/08/30 10:47:30;;;;;;;4.03;1.93;;;21.50;32.40;;;;;;5111408;27;53404;-76
2023/08/30 10:49:57;;;;;;;3.77;2.27;;;20.90;33.30;;;;;;5130552;27;46489;-79
2023/08/30 10:52:23;;;;;;;4.00;2.03;;;20.50;34.40;;;;;;5127663;27;46900;-78
2023/08/30 10:54:50;;;;;;;4.80;1.80;;;20.20;33.70;;;;;;5125719;27;46418;-78
2023/08/30 10:57:24;;;;;;;4.10;2.30;;;19.90;33.30;;;;;;5127170;27;47047;-78
2023/08/30 11:00:09;;;;;;;4.90;2.77;;;19.50;33.60;;;;;;5125884;27;46473;-79
2023/08/30 11:02:36;;;;;;;3.90;2.17;;;19.40;33.80;;;;;;5127442;27;46606;-78
2023/08/30 11:05:03;;;;;;;4.63;2.60;;;19.40;33.80;;;;;;5123559;27;46512;-78
2023/08/30 11:07:29;;;;;;;4.47;2.20;;;19.50;33.60;;;;;;5127936;27;46736;-78
2023/08/30 11:09:55;;;;;;;5.63;2.93;;;19.60;32.60;;;;;;5125901;27;46372;-81
2023/08/30 11:12:25;;;;;;;4.53;2.73;;;19.60;33.70;;;;;;5127622;27;46462;-81
2023/08/30 11:14:52;;;;;;;4.67;2.70;;;19.80;33.20;;;;;;5126586;27;47211;-82
2023/08/30 11:17:18;;;;;;;8.60;2.97;;;19.90;32.90;;;;;;5126831;27;46884;-79
2023/08/30 11:19:44;;;;;;;4.40;3.10;;;20.10;32.40;;;;;;5128100;27;46452;-77
2023/08/30 11:22:12;;;;;;;6.63;3.40;;;20.30;31.70;;;;;;5128891;27;46568;-78
2023/08/30 11:24:37;;;;;;;4.47;2.67;;;20.40;31.30;;;;;;5130735;27;46878;-78
2023/08/30 11:27:03;;;;;;;3.80;2.80;;;20.60;31.60;;;;;;5127818;27;47108;-79
2023/08/30 11:29:29;;;;;;;4.93;2.80;;;20.80;29.90;;;;;;5110938;27;46589;-78
2023/08/30 11:31:54;;;;;;;4.40;2.90;;;20.80;30.80;;;;;;5127802;27;46504;-79
2023/08/30 11:34:22;;;;;;;6.10;2.97;;;21.00;30.70;;;;;;5129554;27;46503;-80
2023/08/30 11:36:49;;;;;;;3.73;2.30;;;21.10;30.40;;;;;;5125963;27;46203;-78
2023/08/30 11:39:16;;;;;;;3.23;2.03;;;21.30;29.10;;;;;;5125648;27;46741;-81
2023/08/30 11:41:42;;;;;;;5.20;2.50;;;21.50;29.80;;;;;;5126469;27;46429;-78
2023/08/30 11:44:08;;;;;;;8.37;2.97;;;21.90;29.00;;;;;;5125623;27;46727;-79
2023/08/30 11:46:33;;;;;;;6.00;3.00;;;22.00;28.00;;;;;;5110253;27;49221;-80
2023/08/30 11:49:00;;;;;;;5.03;2.33;;;22.20;26.90;;;;;;5125875;27;46434;-81
2023/08/30 11:51:25;;;;;;;3.63;2.10;;;22.20;27.80;;;;;;5109083;27;46550;-80
2023/08/30 11:53:52;;;;;;;4.03;2.10;;;22.30;27.50;;;;;;5126004;27;46962;-79
2023/08/30 11:56:19;;;;;;;3.17;2.03;;;22.60;27.10;;;;;;5129821;27;46479;-79
2023/08/30 11:58:44;;;;;;;5.80;2.50;;;22.80;26.60;;;;;;5127861;27;46477;-79
2023/08/30 12:01:11;;;;;;;5.27;1.77;;;22.80;25.70;;;;;;5123166;27;46618;-79
2023/08/30 12:03:36;;;;;;;9.40;2.20;;;22.90;25.70;;;;;;5106348;27;46425;-79
2023/08/30 12:06:02;;;;;;;5.87;1.80;;;22.80;24.40;;;;;;5105988;27;49193;-78
2023/08/30 12:08:31;;;;;;;4.73;1.97;;;24.40;25.90;;;;;;5112627;27;46772;-78
2023/08/30 12:10:58;;;;;;;5.87;1.80;;;22.40;25.10;;;;;;5122727;27;46643;-79
2023/08/30 12:13:27;;;;;;;3.90;1.93;;;22.30;25.30;;;;;;5128037;27;46485;-78
2023/08/30 12:15:54;;;;;;;5.00;2.63;;;22.40;25.00;;;;;;5118458;27;48277;-80
2023/08/30 12:18:33;;;;;;;4.77;2.27;;;22.60;24.80;;;;;;5116943;27;46452;-80
2023/08/30 12:20:59;;;;;;;4.40;2.43;;;22.60;25.20;;;;;;5125128;27;46492;-79
2023/08/30 12:23:26;;;;;;;4.90;2.20;;;22.70;25.30;;;;;;5127688;27;46657;-79
2023/08/30 12:26:06;;;;;;;4.77;2.50;;;22.60;24.80;;;;;;5126061;27;46714;-83
2023/08/30 12:28:34;;;;;;;4.77;2.57;;;22.60;23.90;;;;;;5126229;27;46642;-79
2023/08/30 12:30:59;;;;;;;3.70;2.43;;;22.60;24.70;;;;;;5123981;27;46727;-80
2023/08/30 12:33:26;;;;;;;6.57;2.50;;;22.70;24.50;;;;;;5127145;27;46451;-81
2023/08/30 12:35:55;;;;;;;6.17;2.53;;;22.90;24.50;;;;;;5125312;27;46474;-78
2023/08/30 12:38:21;;;;;;;7.30;3.00;;;23.10;23.30;;;;;;5127910;27;46577;-80